Stations météo

réclame
Mon MeteoGroup
Paganella, Italie (16022): Température de l'air & dewpoint: 14.10.2017 09:00:00 - 20.10.2017 09:00:00 (CEST)Paganella, Italie (16022): Vitesse du vent: 14.10.2017 09:00:00 - 20.10.2017 09:00:00 (CEST)Paganella, Italie (16022): Direction du vent: 14.10.2017 09:00:00 - 20.10.2017 09:00:00 (CEST)Paganella, Italie (16022): visibility: 14.10.2017 09:00:00 - 20.10.2017 09:00:00 (CEST)Paganella, Italie (16022): Ensoleillement: 14.10.2017 09:00:00 - 20.10.2017 09:00:00 (CEST)
Date & Time tt [°C] td [°C] ff [km/h] ff [knt] dd vv [km] sd [min]
20.10.2017 09:00:00 - - - - - - -
20.10.2017 08:00:00 5,1 -0,9 18 10 SW 10 0
20.10.2017 07:00:00 4,8 0,9 21 11 SW 10 -
20.10.2017 06:00:00 4,3 1,5 24 13 WSW 10 -
20.10.2017 05:00:00 4,0 1,7 22 12 SW 10 -
20.10.2017 04:00:00 3,6 1,5 24 13 SSW 10 -
20.10.2017 03:00:00 3,8 1,5 24 13 SSW 10 -
20.10.2017 02:00:00 4,0 2,0 22 12 SSW 10 -
20.10.2017 01:00:00 4,2 2,9 21 11 SSW 10 -
20.10.2017 00:00:00 4,8 4,2 18 10 SSW 10 -
19.10.2017 23:00:00 5,0 4,1 15 8 SSW 10 -
19.10.2017 22:00:00 5,8 2,6 21 11 SW 10 -
19.10.2017 21:00:00 5,8 2,6 18 10 SW 10 -
19.10.2017 20:00:00 5,8 2,6 13 7 SSW 10 -
19.10.2017 19:00:00 6,8 1,5 13 7 S 10 0
19.10.2017 18:00:00 8,0 -6,5 11 6 S 10 36
19.10.2017 17:00:00 8,4 -1,4 16 9 SSW 10 60
19.10.2017 16:00:00 8,6 2,8 9 5 W 10 60
19.10.2017 15:00:00 8,4 -0,1 8 4 W 10 60
19.10.2017 14:00:00 8,2 2,4 8 4 NNW 10 60
19.10.2017 13:00:00 7,0 2,1 8 4 WNW 10 60
19.10.2017 12:00:00 6,4 1,3 5 3 SW 10 60
19.10.2017 11:00:00 6,0 -0,1 8 4 SSW 10 60
19.10.2017 10:00:00 5,0 -0,4 5 3 - 10 60
19.10.2017 09:00:00 3,8 -1,2 8 4 NW 40 60
19.10.2017 08:00:00 4,0 0,0 16 9 WSW 10 0
19.10.2017 07:00:00 3,6 -0,6 11 6 E 40 -
19.10.2017 06:00:00 3,2 -0,8 5 3 ENE 40 -
19.10.2017 05:00:00 3,4 2,7 9 5 NNE 40 -
19.10.2017 04:00:00 3,6 2,4 9 5 NW 40 -
19.10.2017 03:00:00 3,9 -1,5 11 6 W 10 -
19.10.2017 02:00:00 5,0 -1,7 16 9 WSW 10 -
19.10.2017 01:00:00 4,0 -1,0 24 13 SW 10 -
19.10.2017 00:00:00 4,0 -0,2 28 15 SW 10 -
18.10.2017 23:00:00 4,3 0,6 22 12 SSW 10 -
18.10.2017 22:00:00 5,0 0,0 28 15 SSW 10 -
18.10.2017 21:00:00 6,7 -3,0 18 10 SSW 10 -
18.10.2017 20:00:00 7,2 -2,5 13 7 SSW 10 -
18.10.2017 19:00:00 7,4 -2,3 22 12 SW 10 24
18.10.2017 18:00:00 9,0 -0,9 26 14 SW 10 60
18.10.2017 17:00:00 10,0 -1,1 28 15 SW 10 60
18.10.2017 16:00:00 10,0 -1,1 16 9 SW 10 60
18.10.2017 15:00:00 9,4 -0,8 28 15 SW 10 60
18.10.2017 14:00:00 9,0 -1,7 29 16 SW 10 60
18.10.2017 13:00:00 8,2 -1,6 21 11 SSW 70 60
18.10.2017 12:00:00 7,8 -2,0 11 6 WSW 70 60
18.10.2017 11:00:00 7,2 -3,9 8 4 W 70 60
18.10.2017 10:00:00 6,0 -5,3 5 3 SSW 10 60
18.10.2017 09:00:00 5,4 -6,8 9 5 SW 10 30
18.10.2017 08:00:00 5,0 -6,5 21 11 SSW 70 0
18.10.2017 07:00:00 5,2 -6,3 26 14 SSW 70 -
18.10.2017 06:00:00 5,5 -5,2 29 16 SSW 10 -
18.10.2017 05:00:00 6,0 -5,6 31 17 SSW 60 -
18.10.2017 04:00:00 6,0 -5,3 31 17 SSW 60 -
18.10.2017 03:00:00 6,8 -7,2 28 15 S 70 -
18.10.2017 02:00:00 6,8 -7,2 18 10 SSW 70 -
18.10.2017 01:00:00 7,0 -7,4 13 7 SSW 10 -
18.10.2017 00:00:00 7,2 -7,2 16 9 S 70 -
17.10.2017 23:00:00 7,4 -5,3 22 12 SSW 70 -
17.10.2017 22:00:00 8,0 -5,4 24 13 SSW 10 -
17.10.2017 21:00:00 8,0 -6,2 26 14 S 70 -
17.10.2017 20:00:00 8,4 -5,8 24 13 S 70 -
17.10.2017 19:00:00 9,5 -4,5 29 16 S 10 6
17.10.2017 18:00:00 10,2 -3,8 26 14 S 70 0
17.10.2017 17:00:00 12,4 -3,0 24 13 SSW 70 60
17.10.2017 16:00:00 12,8 -5,7 21 11 SSW 10 60
17.10.2017 15:00:00 13,0 -6,5 18 10 SSW 10 60
17.10.2017 14:00:00 12,8 -8,4 16 9 SSW 80 60
17.10.2017 13:00:00 12,0 -7,4 16 9 S 10 60
17.10.2017 12:00:00 12,0 -4,2 15 8 SE 80 60
17.10.2017 11:00:00 11,6 -2,6 9 5 SSE 80 60
17.10.2017 10:00:00 10,8 -2,9 8 4 ENE 75 60
17.10.2017 09:00:00 9,8 -3,2 9 5 NNE 75 48
17.10.2017 08:00:00 9,0 -2,9 11 6 NNE 75 0
17.10.2017 07:00:00 9,4 -3,2 11 6 NNE 75 -
17.10.2017 06:00:00 9,6 -3,0 9 5 N 10 -
17.10.2017 05:00:00 9,4 -1,9 9 5 N 75 -
17.10.2017 04:00:00 8,9 -5,0 9 5 N 70 -
17.10.2017 03:00:00 9,0 -3,2 5 3 NNW 70 -
17.10.2017 02:00:00 9,0 -3,2 8 4 SSW 10 -
17.10.2017 01:00:00 9,2 -4,4 16 9 SW 70 -
17.10.2017 00:00:00 9,8 -5,3 13 7 SW 70 -
16.10.2017 23:00:00 9,8 -3,5 18 10 SSW 70 -
16.10.2017 22:00:00 9,9 0,2 13 7 SW 10 -
16.10.2017 21:00:00 10,1 0,7 9 5 S 80 -
16.10.2017 20:00:00 10,6 -0,5 13 7 SSW 10 -
16.10.2017 19:00:00 11,0 -0,8 21 11 SSW 10 48
16.10.2017 18:00:00 12,0 -4,6 21 11 S 75 60
16.10.2017 17:00:00 13,4 -5,7 18 10 S 75 60
16.10.2017 16:00:00 14,0 -2,9 15 8 S 75 60
16.10.2017 15:00:00 14,0 -3,3 11 6 S 75 60
16.10.2017 14:00:00 13,4 0,1 8 4 S 75 60
16.10.2017 13:00:00 13,0 0,4 5 3 - 10 60
16.10.2017 12:00:00 12,8 0,2 8 4 S 10 60
16.10.2017 11:00:00 12,2 0,6 0 0 N 10 60
16.10.2017 10:00:00 9,2 -0,1 8 4 ENE 10 60
16.10.2017 09:00:00 8,3 -0,5 9 5 N 70 60
16.10.2017 08:00:00 8,5 0,7 9 5 N 80 0
16.10.2017 07:00:00 8,7 0,7 9 5 N 70 -
16.10.2017 06:00:00 8,9 -0,7 9 5 NNE 70 -
16.10.2017 05:00:00 9,0 -1,4 13 7 NNE 70 -
16.10.2017 04:00:00 9,0 -0,9 9 5 NNE 60 -
16.10.2017 03:00:00 9,0 -0,9 9 5 NNE 60 -
16.10.2017 02:00:00 9,0 -1,4 9 5 NNE 60 -
16.10.2017 01:00:00 9,2 0,6 8 4 N 60 -
16.10.2017 00:00:00 9,6 -0,3 8 4 NNE 10 -
15.10.2017 23:00:00 9,6 0,8 15 8 WNW 10 -
15.10.2017 22:00:00 10,0 1,4 13 7 SSW 60 -
15.10.2017 21:00:00 10,2 1,6 13 7 SW 60 -
15.10.2017 20:00:00 10,0 1,4 21 11 SSW 60 -
15.10.2017 19:00:00 11,5 0,0 15 8 SSW 70 30
15.10.2017 18:00:00 12,9 0,0 15 8 SSW 80 60
15.10.2017 17:00:00 13,4 -2,5 13 7 SSW 80 60
15.10.2017 16:00:00 13,6 -4,1 11 6 SSW 10 60
15.10.2017 15:00:00 13,0 -2,9 11 6 SSW 10 60
15.10.2017 14:00:00 12,5 -2,2 11 6 S 80 60
15.10.2017 13:00:00 11,8 -2,8 8 4 S 80 60
15.10.2017 12:00:00 11,2 -1,5 4 2 N 80 60
15.10.2017 11:00:00 11,0 -2,8 4 2 N 75 60
15.10.2017 10:00:00 10,0 -3,7 4 2 N 75 60
15.10.2017 09:00:00 9,2 -5,5 9 5 SSW 75 54
15.10.2017 08:00:00 9,4 -5,3 13 7 SW 75 0
15.10.2017 07:00:00 9,6 -4,4 9 5 N 75 -
15.10.2017 06:00:00 9,6 -3,7 9 5 N 10 -
15.10.2017 05:00:00 9,4 -3,9 22 12 N 70 -
15.10.2017 04:00:00 9,0 -0,9 9 5 N 70 -
15.10.2017 03:00:00 - 72,7 11 6 NNE 70 -
15.10.2017 02:00:00 9,2 -1,2 11 6 NNE 70 -
15.10.2017 01:00:00 9,1 -1,3 8 4 N 70 -
15.10.2017 00:00:00 8,8 -1,6 9 5 NNE 10 -
14.10.2017 23:00:00 8,7 -2,0 9 5 NW 10 -
14.10.2017 22:00:00 7,8 -3,4 0 0 N 70 -
14.10.2017 21:00:00 9,0 -2,9 13 7 SSW 70 -
14.10.2017 20:00:00 9,0 -3,9 15 8 SSW 60 -
14.10.2017 19:00:00 10,0 -5,9 21 11 S 75 36
14.10.2017 18:00:00 11,2 -5,3 21 11 S 10 60
14.10.2017 17:00:00 13,0 -3,3 9 5 SSW 75 60
14.10.2017 16:00:00 12,4 -3,0 9 5 S 75 60
14.10.2017 15:00:00 12,0 -2,2 4 2 N 75 60
14.10.2017 14:00:00 11,4 -3,5 4 2 N 75 60
14.10.2017 13:00:00 11,2 -4,1 4 2 N 75 60
14.10.2017 12:00:00 10,4 -5,6 9 5 NNE 75 60
14.10.2017 11:00:00 10,2 -5,7 8 4 NNE 70 60
14.10.2017 10:00:00 9,8 -5,7 8 4 NNE 70 60
14.10.2017 09:00:00 8,5 -6,5 8 4 NNE 10 60

tt = Température de l'air
td = dewpoint
ff = Vitesse du vent
dd = Direction du vent
vv = visibility
sd = Ensoleillement

stations d'obs. à proximité